Lorraine — A8IZ3 — position and weather

sailwx.info

Track history (hours):
 
Tides and Currents Weather Stations Pressure Air Temp Water Temp Dewpoint Dewpoint Depression Visibility Wind Speed Wind Dir Waves Ship Positions

Lorraine

Last reported at 2016-Dec-04 23:33 UTC. Time now 2016-Dec-06 16:07 UTC.
Position N 22°19' E 114°05'.

Length 221 m; draft 10.1 m.

Type: Ship. MMSI: 636012905.

Date/timePositionNaut miles runAvg speedWind from/ knotsBaromVisibWave heightAir tempDewpointWater temp
2016-Dec-04 23:33N 22°19' E 114°05'1111.3
2016-Dec-04 22:33N 22°23' E 113°54'4 4.2
2016-Dec-04 21:33N 22°27' E 113°54'0 0.0
2016-Dec-04 20:33N 22°27' E 113°54'0 0.0
2016-Dec-04 19:33N 22°27' E 113°54'0 0.0
2016-Dec-04 18:11N 22°27' E 113°54'0 0.0
2016-Dec-04 17:29N 22°27' E 113°54'0 0.0
2016-Dec-04 16:10N 22°27' E 113°54'0 0.0
2016-Dec-04 15:24N 22°27' E 113°54'0 0.0
2016-Dec-04 14:27N 22°27' E 113°54'0 0.0
2016-Dec-04 13:27N 22°27' E 113°54'0 0.0
2016-Dec-04 12:33N 22°27' E 113°54'0 0.0
2016-Dec-04 11:20N 22°27' E 113°54'13 7.4
2016-Dec-04 09:34N 22°20' E 114°05'2 2.2
2016-Dec-04 08:33N 22°19' E 114°08'0 0.0
2016-Dec-04 07:27N 22°19' E 114°08'0 0.0
2016-Dec-04 06:33N 22°19' E 114°08'0 0.0
2016-Dec-04 03:29N 22°19' E 114°08'0 0.0
2016-Dec-04 02:18N 22°19' E 114°08'0 0.0
2016-Dec-03 23:10N 22°19' E 114°08'0 0.0
2016-Dec-03 22:28N 22°19' E 114°08'0 0.0
2016-Dec-03 21:15N 22°19' E 114°08'  
2016-Nov-28 12:19N 36°46' E 122°40'1012.5
2016-Nov-28 11:33N 36°54' E 122°46'1312.0
2016-Nov-28 10:29N 37°04' E 122°56'119 5.9
2016-Nov-27 14:13N 38°53' E 121°56'1710.2
2016-Nov-27 12:31N 38°38' E 121°47'1414.4
2016-Nov-27 11:33N 38°29' E 121°33'1715.6
2016-Nov-27 10:26N 38°29' E 121°10'1415.1
2016-Nov-27 09:30N 38°34' E 120°53'1515.9
2016-Nov-27 08:33N 38°34' E 120°34'10617.7
2016-Nov-27 02:33N 38°50' E 118°19'1313.0
2016-Nov-27 01:33N 38°55' E 118°04'5 5.5
2016-Nov-27 00:33N 38°57' E 117°57'8 8.0
2016-Nov-26 23:33N 38°59' E 117°47'0 0.0
2016-Nov-26 22:27N 38°59' E 117°47'0 0.0
2016-Nov-26 21:33N 38°59' E 117°47'0 0.0
2016-Nov-26 20:32N 38°59' E 117°47'0 0.0
2016-Nov-26 18:19N 38°59' E 117°47'0 0.0
2016-Nov-26 17:31N 38°59' E 117°47'0 0.0
2016-Nov-26 16:25N 38°59' E 117°47'0 0.0
2016-Nov-26 15:30N 38°59' E 117°47'0 0.0
2016-Nov-26 14:18N 38°59' E 117°47'0 0.0
2016-Nov-26 13:29N 38°59' E 117°47'0 0.0
2016-Nov-26 12:23N 38°59' E 117°47'0 0.0
2016-Nov-26 11:28N 38°59' E 117°47'0 0.0
2016-Nov-26 10:28N 38°59' E 117°47'0 0.0
2016-Nov-26 09:28N 38°59' E 117°47'0 0.0
2016-Nov-26 08:27N 38°59' E 117°47'0 0.0
2016-Nov-26 07:33N 38°59' E 117°47'3 2.6
2016-Nov-26 06:33N 38°58' E 117°50'1211.5
2016-Nov-26 05:33N 38°53' E 118°04'0 0.1
2016-Nov-26 02:29N 38°54' E 118°04'12112.1
2016-Nov-25 16:31N 38°38' E 120°38'1212.5
2016-Nov-25 15:34N 38°36' E 120°53'1312.6
2016-Nov-25 14:33N 38°31' E 121°08'13011.8
2016-Nov-25 03:33N 37°01' E 123°05'  
Track history (hours):
 
Tides and Currents Weather Stations Pressure Air Temp Water Temp Dewpoint Dewpoint Depression Visibility Wind Speed Wind Dir Waves Ship Positions

Lorraine

Last reported at 2016-Dec-04 23:33 UTC. Time now 2016-Dec-06 16:07 UTC.
Position N 22°19' E 114°05'.

Length 221 m; draft 10.1 m.

Type: Ship. MMSI: 636012905.

Date/timePositionNaut miles runAvg speedWind from/ knotsBaromVisibWave heightAir tempDewpointWater temp
2016-Dec-04 23:33N 22°19' E 114°05'1111.3
2016-Dec-04 22:33N 22°23' E 113°54'4 4.2
2016-Dec-04 21:33N 22°27' E 113°54'0 0.0
2016-Dec-04 20:33N 22°27' E 113°54'0 0.0
2016-Dec-04 19:33N 22°27' E 113°54'0 0.0
2016-Dec-04 18:11N 22°27' E 113°54'0 0.0
2016-Dec-04 17:29N 22°27' E 113°54'0 0.0
2016-Dec-04 16:10N 22°27' E 113°54'0 0.0
2016-Dec-04 15:24N 22°27' E 113°54'0 0.0
2016-Dec-04 14:27N 22°27' E 113°54'0 0.0
2016-Dec-04 13:27N 22°27' E 113°54'0 0.0
2016-Dec-04 12:33N 22°27' E 113°54'0 0.0
2016-Dec-04 11:20N 22°27' E 113°54'13 7.4
2016-Dec-04 09:34N 22°20' E 114°05'2 2.2
2016-Dec-04 08:33N 22°19' E 114°08'0 0.0
2016-Dec-04 07:27N 22°19' E 114°08'0 0.0
2016-Dec-04 06:33N 22°19' E 114°08'0 0.0
2016-Dec-04 03:29N 22°19' E 114°08'0 0.0
2016-Dec-04 02:18N 22°19' E 114°08'0 0.0
2016-Dec-03 23:10N 22°19' E 114°08'0 0.0
2016-Dec-03 22:28N 22°19' E 114°08'0 0.0
2016-Dec-03 21:15N 22°19' E 114°08'  
2016-Nov-28 12:19N 36°46' E 122°40'1012.5
2016-Nov-28 11:33N 36°54' E 122°46'1312.0
2016-Nov-28 10:29N 37°04' E 122°56'119 5.9
2016-Nov-27 14:13N 38°53' E 121°56'1710.2
2016-Nov-27 12:31N 38°38' E 121°47'1414.4
2016-Nov-27 11:33N 38°29' E 121°33'1715.6
2016-Nov-27 10:26N 38°29' E 121°10'1415.1
2016-Nov-27 09:30N 38°34' E 120°53'1515.9
2016-Nov-27 08:33N 38°34' E 120°34'10617.7
2016-Nov-27 02:33N 38°50' E 118°19'1313.0
2016-Nov-27 01:33N 38°55' E 118°04'5 5.5
2016-Nov-27 00:33N 38°57' E 117°57'8 8.0
2016-Nov-26 23:33N 38°59' E 117°47'0 0.0
2016-Nov-26 22:27N 38°59' E 117°47'0 0.0
2016-Nov-26 21:33N 38°59' E 117°47'0 0.0
2016-Nov-26 20:32N 38°59' E 117°47'0 0.0
2016-Nov-26 18:19N 38°59' E 117°47'0 0.0
2016-Nov-26 17:31N 38°59' E 117°47'0 0.0
2016-Nov-26 16:25N 38°59' E 117°47'0 0.0
2016-Nov-26 15:30N 38°59' E 117°47'0 0.0
2016-Nov-26 14:18N 38°59' E 117°47'0 0.0
2016-Nov-26 13:29N 38°59' E 117°47'0 0.0
2016-Nov-26 12:23N 38°59' E 117°47'0 0.0
2016-Nov-26 11:28N 38°59' E 117°47'0 0.0
2016-Nov-26 10:28N 38°59' E 117°47'0 0.0
2016-Nov-26 09:28N 38°59' E 117°47'0 0.0
2016-Nov-26 08:27N 38°59' E 117°47'0 0.0
2016-Nov-26 07:33N 38°59' E 117°47'3 2.6
2016-Nov-26 06:33N 38°58' E 117°50'1211.5
2016-Nov-26 05:33N 38°53' E 118°04'0 0.1
2016-Nov-26 02:29N 38°54' E 118°04'12112.1
2016-Nov-25 16:31N 38°38' E 120°38'1212.5
2016-Nov-25 15:34N 38°36' E 120°53'1312.6
2016-Nov-25 14:33N 38°31' E 121°08'13011.8
2016-Nov-25 03:33N 37°01' E 123°05'  

Dump ship's entire track history